JBU1004 TJSJ-KJFK
Flight info
| Callsign | JBU1004 |
|---|---|
| Flight time | N/A |
| Altitude | 38000 |
| Route | ACONY3 PALDE DCT DONQU/N0450F370 DCT LUCTI/M078F380 L454 OKONU/N0457F390 DCT YAALE Y495 MOUGH/N0455F380 Y495 CAMRN |
| Aircraft | A20N/M-SDE2E3FGHIRWXY/LB1 |
Departure
| Time | N/A |
|---|---|
| Airport | Luis Munoz Marin International Airport (TJSJ) |
Arrival
| Time | 2026-05-03 22:52 |
|---|---|
| Airport | John F. Kennedy International Airport (KJFK) |
| Time | Latitude | Longitude | Altitude | Speed | Heading |
|---|---|---|---|---|---|
| 2026-05-03 20:15 | 22.96376 | -68.62614 | 38061 ft | 435 kts | 345° |
| 2026-05-03 20:15 | 23.02305 | -68.63954 | 38064 ft | 435 kts | 344° |
| 2026-05-03 20:16 | 23.08239 | -68.65297 | 38064 ft | 435 kts | 344° |
| 2026-05-03 20:16 | 23.14173 | -68.66641 | 38066 ft | 435 kts | 344° |
| 2026-05-03 20:17 | 23.20104 | -68.67985 | 38068 ft | 435 kts | 344° |
| 2026-05-03 20:17 | 23.26037 | -68.69332 | 38070 ft | 435 kts | 344° |
| 2026-05-03 20:18 | 23.31928 | -68.70669 | 38070 ft | 435 kts | 344° |
| 2026-05-03 20:18 | 23.37858 | -68.72017 | 38069 ft | 435 kts | 344° |
| 2026-05-03 20:19 | 23.43790 | -68.73367 | 38071 ft | 435 kts | 344° |
| 2026-05-03 20:19 | 23.49720 | -68.74717 | 38074 ft | 435 kts | 344° |
| 2026-05-03 20:20 | 23.55651 | -68.76069 | 38067 ft | 435 kts | 344° |
| 2026-05-03 20:20 | 23.61589 | -68.77424 | 38069 ft | 435 kts | 343° |
| 2026-05-03 20:21 | 23.67530 | -68.78781 | 38068 ft | 435 kts | 343° |
| 2026-05-03 20:21 | 23.73423 | -68.80128 | 38073 ft | 436 kts | 343° |
| 2026-05-03 20:22 | 23.79360 | -68.81486 | 38070 ft | 436 kts | 343° |
| 2026-05-03 20:22 | 23.85295 | -68.82845 | 38070 ft | 436 kts | 343° |
| 2026-05-03 20:23 | 23.91238 | -68.84207 | 38069 ft | 436 kts | 343° |
| 2026-05-03 20:23 | 23.97183 | -68.85571 | 38076 ft | 436 kts | 343° |
| 2026-05-03 20:24 | 24.03136 | -68.86938 | 38075 ft | 436 kts | 343° |
| 2026-05-03 20:24 | 24.09087 | -68.88306 | 38076 ft | 437 kts | 343° |
| 2026-05-03 20:25 | 24.15000 | -68.89666 | 38076 ft | 437 kts | 343° |
| 2026-05-03 20:25 | 24.20963 | -68.91039 | 38079 ft | 437 kts | 343° |
| 2026-05-03 20:26 | 24.26916 | -68.92412 | 38081 ft | 437 kts | 343° |
| 2026-05-03 20:26 | 24.32840 | -68.93779 | 38082 ft | 437 kts | 343° |
| 2026-05-03 20:27 | 24.38802 | -68.95156 | 38075 ft | 437 kts | 343° |
| 2026-05-03 20:27 | 24.44752 | -68.96531 | 38077 ft | 437 kts | 343° |
| 2026-05-03 20:28 | 24.50707 | -68.97909 | 38077 ft | 437 kts | 343° |
| 2026-05-03 20:28 | 24.56637 | -68.99283 | 38078 ft | 437 kts | 343° |
| 2026-05-03 20:29 | 24.62597 | -69.00664 | 38078 ft | 437 kts | 342° |
| 2026-05-03 20:29 | 24.68562 | -69.02049 | 38076 ft | 437 kts | 342° |
| 2026-05-03 20:30 | 24.74484 | -69.03424 | 38076 ft | 437 kts | 342° |
| 2026-05-03 20:30 | 24.80442 | -69.04810 | 38076 ft | 437 kts | 342° |
| 2026-05-03 20:31 | 24.85399 | -69.05963 | 38067 ft | 437 kts | 342° |
| 2026-05-03 20:31 | 24.91359 | -69.07351 | 38066 ft | 437 kts | 342° |
| 2026-05-03 20:32 | 24.97305 | -69.08737 | 38071 ft | 437 kts | 342° |
| 2026-05-03 20:32 | 25.03272 | -69.10088 | 38082 ft | 438 kts | 343° |
| 2026-05-03 20:33 | 25.09273 | -69.11300 | 38079 ft | 439 kts | 344° |
| 2026-05-03 20:33 | 25.15281 | -69.12520 | 38079 ft | 439 kts | 343° |
| 2026-05-03 20:34 | 25.21251 | -69.13748 | 38084 ft | 439 kts | 343° |
| 2026-05-03 20:34 | 25.27257 | -69.14990 | 38082 ft | 439 kts | 343° |
| 2026-05-03 20:35 | 25.33261 | -69.16232 | 38075 ft | 439 kts | 343° |
| 2026-05-03 20:35 | 25.39275 | -69.17477 | 38075 ft | 439 kts | 343° |
| 2026-05-03 20:36 | 25.45248 | -69.18715 | 38082 ft | 439 kts | 343° |
| 2026-05-03 20:36 | 25.51268 | -69.19964 | 38083 ft | 439 kts | 343° |
| 2026-05-03 20:37 | 25.57286 | -69.21214 | 38085 ft | 439 kts | 343° |
| 2026-05-03 20:37 | 25.63297 | -69.22464 | 38082 ft | 439 kts | 343° |
| 2026-05-03 20:38 | 25.69279 | -69.23709 | 38081 ft | 439 kts | 343° |
| 2026-05-03 20:38 | 25.75313 | -69.24966 | 38082 ft | 439 kts | 343° |
| 2026-05-03 20:39 | 25.81289 | -69.26212 | 38082 ft | 439 kts | 343° |
| 2026-05-03 20:39 | 25.87306 | -69.27468 | 38084 ft | 439 kts | 342° |
| 2026-05-03 20:40 | 25.93289 | -69.28718 | 38083 ft | 439 kts | 342° |
| 2026-05-03 20:40 | 25.99290 | -69.29974 | 38086 ft | 439 kts | 342° |
| 2026-05-03 20:41 | 26.05290 | -69.31230 | 38084 ft | 438 kts | 342° |
| 2026-05-03 20:41 | 26.11262 | -69.32481 | 38085 ft | 438 kts | 342° |
| 2026-05-03 20:42 | 26.17257 | -69.33739 | 38081 ft | 438 kts | 342° |
| 2026-05-03 20:42 | 26.23249 | -69.34998 | 38082 ft | 438 kts | 342° |
| 2026-05-03 20:43 | 26.29242 | -69.36258 | 38068 ft | 437 kts | 342° |
| 2026-05-03 20:43 | 26.35185 | -69.37509 | 38070 ft | 437 kts | 342° |
| 2026-05-03 20:44 | 26.41168 | -69.38770 | 38060 ft | 437 kts | 342° |
| 2026-05-03 20:44 | 26.47143 | -69.40030 | 38065 ft | 436 kts | 342° |
| 2026-05-03 20:45 | 26.53120 | -69.41292 | 38062 ft | 436 kts | 342° |
| 2026-05-03 20:45 | 26.59058 | -69.42548 | 38062 ft | 436 kts | 342° |
| 2026-05-03 20:46 | 26.65040 | -69.43814 | 38062 ft | 437 kts | 341° |
| 2026-05-03 20:46 | 26.71016 | -69.45080 | 38062 ft | 437 kts | 341° |
| 2026-05-03 20:47 | 26.76994 | -69.46347 | 38062 ft | 437 kts | 341° |
| 2026-05-03 20:47 | 26.82979 | -69.47618 | 38064 ft | 438 kts | 341° |
| 2026-05-03 20:48 | 26.88968 | -69.48891 | 38068 ft | 438 kts | 341° |
| 2026-05-03 20:48 | 26.94923 | -69.50158 | 38074 ft | 439 kts | 341° |
| 2026-05-03 20:49 | 27.00928 | -69.51437 | 38072 ft | 439 kts | 341° |
| 2026-05-03 20:49 | 27.06935 | -69.52718 | 38075 ft | 440 kts | 341° |
| 2026-05-03 20:50 | 27.12949 | -69.54002 | 38075 ft | 440 kts | 341° |
| 2026-05-03 20:50 | 27.18980 | -69.55291 | 38074 ft | 440 kts | 341° |
| 2026-05-03 20:51 | 27.25004 | -69.56579 | 38075 ft | 440 kts | 341° |
| 2026-05-03 20:51 | 27.31024 | -69.57868 | 38069 ft | 439 kts | 341° |
| 2026-05-03 20:52 | 27.36991 | -69.59147 | 38061 ft | 439 kts | 341° |
| 2026-05-03 20:52 | 27.43011 | -69.60440 | 38065 ft | 439 kts | 340° |
| 2026-05-03 20:53 | 27.49024 | -69.61732 | 38062 ft | 440 kts | 340° |
| 2026-05-03 20:53 | 27.55039 | -69.63026 | 38066 ft | 440 kts | 340° |
| 2026-05-03 20:54 | 27.61016 | -69.64313 | 38064 ft | 440 kts | 340° |
| 2026-05-03 20:54 | 27.70031 | -69.66257 | 38060 ft | 440 kts | 340° |
| 2026-05-03 20:55 | 27.76053 | -69.67557 | 38055 ft | 440 kts | 340° |
| 2026-05-03 20:55 | 27.82064 | -69.68858 | 38057 ft | 440 kts | 340° |
| 2026-05-03 20:56 | 27.88035 | -69.70151 | 38059 ft | 440 kts | 340° |
| 2026-05-03 20:56 | 27.94061 | -69.71456 | 38059 ft | 440 kts | 340° |
| 2026-05-03 20:57 | 28.00084 | -69.72762 | 38059 ft | 440 kts | 340° |
| 2026-05-03 20:57 | 28.06097 | -69.74068 | 38059 ft | 440 kts | 340° |
| 2026-05-03 20:58 | 28.12080 | -69.75369 | 38054 ft | 440 kts | 339° |
| 2026-05-03 20:58 | 28.18092 | -69.76678 | 38054 ft | 440 kts | 339° |
| 2026-05-03 20:59 | 28.24121 | -69.77992 | 38058 ft | 440 kts | 339° |
| 2026-05-03 20:59 | 28.30146 | -69.79307 | 38060 ft | 441 kts | 339° |
| 2026-05-03 21:00 | 28.35163 | -69.80402 | 38058 ft | 441 kts | 339° |
| 2026-05-03 21:00 | 28.42165 | -69.81934 | 38058 ft | 441 kts | 339° |
| 2026-05-03 21:01 | 28.48194 | -69.83254 | 38063 ft | 441 kts | 339° |
| 2026-05-03 21:01 | 28.54223 | -69.84575 | 38075 ft | 441 kts | 339° |
| 2026-05-03 21:02 | 28.60255 | -69.85899 | 38062 ft | 441 kts | 339° |
| 2026-05-03 21:02 | 28.66287 | -69.87225 | 38075 ft | 441 kts | 339° |
| 2026-05-03 21:03 | 28.72318 | -69.88551 | 38070 ft | 441 kts | 338° |
| 2026-05-03 21:03 | 28.78343 | -69.89878 | 38065 ft | 441 kts | 338° |
| 2026-05-03 21:04 | 28.84384 | -69.91211 | 38069 ft | 442 kts | 338° |
| 2026-05-03 21:04 | 28.90429 | -69.92546 | 38073 ft | 442 kts | 338° |
| 2026-05-03 21:05 | 28.96437 | -69.93873 | 38065 ft | 442 kts | 338° |
| 2026-05-03 21:05 | 29.02493 | -69.95213 | 38068 ft | 443 kts | 338° |
| 2026-05-03 21:06 | 29.08539 | -69.96552 | 38068 ft | 443 kts | 338° |
| 2026-05-03 21:06 | 29.14561 | -69.97888 | 38067 ft | 443 kts | 338° |
| 2026-05-03 21:07 | 29.20612 | -69.99232 | 38061 ft | 443 kts | 338° |
| 2026-05-03 21:07 | 29.26673 | -70.00580 | 38062 ft | 443 kts | 338° |
| 2026-05-03 21:08 | 29.32703 | -70.01923 | 38064 ft | 443 kts | 338° |
| 2026-05-03 21:08 | 29.38770 | -70.03275 | 38061 ft | 444 kts | 338° |
| 2026-05-03 21:09 | 29.44848 | -70.04631 | 38062 ft | 444 kts | 338° |
| 2026-05-03 21:09 | 29.50916 | -70.05987 | 38062 ft | 445 kts | 338° |
| 2026-05-03 21:10 | 29.56969 | -70.07341 | 38068 ft | 446 kts | 338° |
| 2026-05-03 21:10 | 29.63071 | -70.08708 | 38077 ft | 446 kts | 338° |
| 2026-05-03 21:11 | 29.69179 | -70.10078 | 38081 ft | 447 kts | 337° |
| 2026-05-03 21:11 | 29.75295 | -70.11451 | 38080 ft | 448 kts | 337° |
| 2026-05-03 21:12 | 29.81428 | -70.12830 | 38082 ft | 449 kts | 337° |
| 2026-05-03 21:12 | 29.87558 | -70.14209 | 38075 ft | 448 kts | 337° |
| 2026-05-03 21:13 | 29.93674 | -70.15586 | 38081 ft | 448 kts | 337° |
| 2026-05-03 21:13 | 29.99796 | -70.16969 | 38086 ft | 448 kts | 337° |
| 2026-05-03 21:14 | 30.05893 | -70.18326 | 38083 ft | 448 kts | 337° |
| 2026-05-03 21:14 | 30.12020 | -70.19698 | 38084 ft | 449 kts | 337° |
| 2026-05-03 21:15 | 30.18152 | -70.21088 | 38087 ft | 449 kts | 337° |
| 2026-05-03 21:15 | 30.24292 | -70.22486 | 38086 ft | 450 kts | 337° |
| 2026-05-03 21:16 | 30.30442 | -70.23886 | 38086 ft | 451 kts | 337° |
| 2026-05-03 21:16 | 30.36570 | -70.25282 | 38093 ft | 451 kts | 336° |
| 2026-05-03 21:17 | 30.41694 | -70.26451 | 38086 ft | 452 kts | 336° |
| 2026-05-03 21:17 | 30.48919 | -70.28102 | 38090 ft | 453 kts | 336° |
| 2026-05-03 21:18 | 30.55108 | -70.29518 | 38093 ft | 453 kts | 336° |
| 2026-05-03 21:18 | 30.61267 | -70.30927 | 38086 ft | 454 kts | 336° |
| 2026-05-03 21:19 | 30.67479 | -70.32351 | 38081 ft | 455 kts | 336° |
| 2026-05-03 21:19 | 30.72658 | -70.33539 | 38080 ft | 456 kts | 336° |
| 2026-05-03 21:20 | 30.79916 | -70.35206 | 38088 ft | 457 kts | 336° |
| 2026-05-03 21:20 | 30.86170 | -70.36644 | 38084 ft | 458 kts | 336° |
| 2026-05-03 21:21 | 30.91378 | -70.37843 | 38086 ft | 459 kts | 336° |
| 2026-05-03 21:21 | 30.97645 | -70.39288 | 38091 ft | 460 kts | 336° |
| 2026-05-03 21:22 | 31.03932 | -70.40739 | 38090 ft | 461 kts | 336° |
| 2026-05-03 21:22 | 31.10191 | -70.42184 | 38096 ft | 462 kts | 336° |
| 2026-05-03 21:23 | 31.16511 | -70.43646 | 38099 ft | 463 kts | 336° |
| 2026-05-03 21:23 | 31.22837 | -70.45111 | 38102 ft | 464 kts | 336° |
| 2026-05-03 21:24 | 31.29174 | -70.46580 | 38100 ft | 464 kts | 336° |
| 2026-05-03 21:24 | 31.35476 | -70.48041 | 38093 ft | 463 kts | 335° |
| 2026-05-03 21:25 | 31.41800 | -70.49513 | 38095 ft | 463 kts | 335° |
| 2026-05-03 21:25 | 31.48147 | -70.50991 | 38095 ft | 463 kts | 335° |
| 2026-05-03 21:26 | 31.54434 | -70.52458 | 38100 ft | 463 kts | 335° |
| 2026-05-03 21:26 | 31.60762 | -70.53935 | 38096 ft | 463 kts | 334° |
| 2026-05-03 21:27 | 31.67088 | -70.55414 | 38103 ft | 463 kts | 334° |
| 2026-05-03 21:27 | 31.73418 | -70.56896 | 38105 ft | 463 kts | 334° |
| 2026-05-03 21:28 | 31.79740 | -70.58379 | 38105 ft | 463 kts | 334° |
| 2026-05-03 21:28 | 31.86065 | -70.59864 | 38106 ft | 463 kts | 334° |
| 2026-05-03 21:29 | 31.92380 | -70.61349 | 38106 ft | 463 kts | 333° |
| 2026-05-03 21:29 | 31.98697 | -70.62837 | 38107 ft | 463 kts | 333° |
| 2026-05-03 21:30 | 32.04986 | -70.64320 | 38107 ft | 463 kts | 333° |
| 2026-05-03 21:30 | 32.11300 | -70.65811 | 38105 ft | 463 kts | 333° |
| 2026-05-03 21:31 | 32.17613 | -70.67305 | 38103 ft | 463 kts | 333° |
| 2026-05-03 21:31 | 32.23930 | -70.68801 | 38101 ft | 463 kts | 333° |
| 2026-05-03 21:32 | 32.30208 | -70.70290 | 38100 ft | 463 kts | 333° |
| 2026-05-03 21:32 | 32.36524 | -70.71790 | 38092 ft | 463 kts | 333° |
| 2026-05-03 21:33 | 32.42833 | -70.73290 | 38100 ft | 463 kts | 332° |
| 2026-05-03 21:33 | 32.49146 | -70.74795 | 38100 ft | 463 kts | 332° |
| 2026-05-03 21:34 | 32.55471 | -70.76303 | 38104 ft | 463 kts | 332° |
| 2026-05-03 21:34 | 32.61766 | -70.77806 | 38112 ft | 463 kts | 332° |
| 2026-05-03 21:35 | 32.68090 | -70.79319 | 38106 ft | 463 kts | 332° |
| 2026-05-03 21:35 | 32.74435 | -70.80839 | 38107 ft | 463 kts | 332° |
| 2026-05-03 21:36 | 32.80735 | -70.82350 | 38108 ft | 463 kts | 332° |
| 2026-05-03 21:36 | 32.87065 | -70.83870 | 38106 ft | 463 kts | 332° |
| 2026-05-03 21:37 | 32.93391 | -70.85392 | 38114 ft | 462 kts | 332° |
| 2026-05-03 21:37 | 32.99654 | -70.86901 | 38119 ft | 462 kts | 332° |
| 2026-05-03 21:38 | 33.05956 | -70.88421 | 38110 ft | 461 kts | 331° |
| 2026-05-03 21:38 | 33.12242 | -70.89940 | 38110 ft | 460 kts | 331° |
| 2026-05-03 21:39 | 33.18518 | -70.91459 | 38113 ft | 460 kts | 331° |
| 2026-05-03 21:39 | 33.24785 | -70.92978 | 38106 ft | 459 kts | 331° |
| 2026-05-03 21:40 | 33.31001 | -70.94487 | 38105 ft | 458 kts | 331° |
| 2026-05-03 21:40 | 33.37253 | -70.96007 | 38107 ft | 457 kts | 331° |
| 2026-05-03 21:41 | 33.43482 | -70.97523 | 38103 ft | 456 kts | 330° |
| 2026-05-03 21:41 | 33.49705 | -70.99040 | 38103 ft | 455 kts | 330° |
| 2026-05-03 21:42 | 33.55872 | -71.00546 | 38103 ft | 455 kts | 330° |
| 2026-05-03 21:42 | 33.62072 | -71.02062 | 38096 ft | 454 kts | 330° |
| 2026-05-03 21:43 | 33.68258 | -71.03576 | 38098 ft | 453 kts | 330° |
| 2026-05-03 21:43 | 33.74435 | -71.05092 | 38098 ft | 453 kts | 330° |
| 2026-05-03 21:44 | 33.80602 | -71.06607 | 38095 ft | 452 kts | 330° |
| 2026-05-03 21:44 | 33.86763 | -71.08122 | 38094 ft | 451 kts | 330° |
| 2026-05-03 21:45 | 33.92883 | -71.09630 | 38098 ft | 451 kts | 330° |
| 2026-05-03 21:45 | 33.99026 | -71.11146 | 38093 ft | 451 kts | 330° |
| 2026-05-03 21:46 | 34.05178 | -71.12665 | 38093 ft | 450 kts | 329° |
| 2026-05-03 21:46 | 34.11325 | -71.14186 | 38098 ft | 450 kts | 329° |
| 2026-05-03 21:47 | 34.17422 | -71.15697 | 38098 ft | 450 kts | 329° |
| 2026-05-03 21:47 | 34.23563 | -71.17221 | 38100 ft | 450 kts | 329° |
| 2026-05-03 21:48 | 34.29702 | -71.18746 | 38093 ft | 450 kts | 329° |
| 2026-05-03 21:48 | 34.35824 | -71.20270 | 38100 ft | 449 kts | 329° |
| 2026-05-03 21:49 | 34.41915 | -71.21789 | 38101 ft | 449 kts | 329° |
| 2026-05-03 21:49 | 34.48059 | -71.23322 | 38099 ft | 449 kts | 329° |
| 2026-05-03 21:50 | 34.54135 | -71.24841 | 38108 ft | 448 kts | 329° |
| 2026-05-03 21:50 | 34.60261 | -71.26376 | 38104 ft | 448 kts | 329° |
| 2026-05-03 21:51 | 34.66368 | -71.27907 | 38110 ft | 447 kts | 329° |
| 2026-05-03 21:51 | 34.72466 | -71.29438 | 38111 ft | 447 kts | 329° |
| 2026-05-03 21:52 | 34.78557 | -71.30970 | 38105 ft | 446 kts | 329° |
| 2026-05-03 21:52 | 34.84598 | -71.32492 | 38101 ft | 445 kts | 329° |
| 2026-05-03 21:53 | 34.90665 | -71.34024 | 38098 ft | 445 kts | 329° |
| 2026-05-03 21:53 | 34.96724 | -71.35555 | 38102 ft | 444 kts | 329° |
| 2026-05-03 21:54 | 35.02774 | -71.37087 | 38100 ft | 443 kts | 329° |
| 2026-05-03 21:54 | 35.08805 | -71.38616 | 38091 ft | 443 kts | 329° |
| 2026-05-03 21:55 | 35.14838 | -71.40148 | 38087 ft | 442 kts | 329° |
| 2026-05-03 21:55 | 35.20821 | -71.41669 | 38090 ft | 442 kts | 329° |
| 2026-05-03 21:56 | 35.26839 | -71.43202 | 38089 ft | 441 kts | 329° |
| 2026-05-03 21:56 | 35.32855 | -71.44736 | 38081 ft | 441 kts | 329° |
| 2026-05-03 21:57 | 35.38868 | -71.46272 | 38084 ft | 441 kts | 330° |
| 2026-05-03 21:57 | 35.44876 | -71.47809 | 38084 ft | 441 kts | 330° |
| 2026-05-03 21:58 | 35.50881 | -71.49349 | 38086 ft | 441 kts | 330° |
| 2026-05-03 21:58 | 35.56838 | -71.50878 | 38089 ft | 441 kts | 330° |
| 2026-05-03 21:59 | 35.62861 | -71.52425 | 38094 ft | 441 kts | 330° |
| 2026-05-03 21:59 | 35.68867 | -71.53970 | 38093 ft | 441 kts | 330° |
| 2026-05-03 22:00 | 35.74877 | -71.55520 | 38090 ft | 441 kts | 330° |
| 2026-05-03 22:00 | 35.80896 | -71.57073 | 38086 ft | 441 kts | 330° |
| 2026-05-03 22:01 | 35.86864 | -71.58616 | 38090 ft | 441 kts | 330° |
| 2026-05-03 22:01 | 35.92870 | -71.60171 | 38092 ft | 441 kts | 331° |
| 2026-05-03 22:02 | 35.98888 | -71.61732 | 38091 ft | 441 kts | 331° |
| 2026-05-03 22:02 | 36.04859 | -71.63283 | 38084 ft | 441 kts | 331° |
| 2026-05-03 22:03 | 36.07862 | -71.64066 | 38192 ft | 440 kts | 331° |
| 2026-05-03 22:03 | 36.10870 | -71.64851 | 38089 ft | 442 kts | 331° |
| 2026-05-03 22:03 | 36.16898 | -71.66423 | 38090 ft | 442 kts | 332° |
| 2026-05-03 22:04 | 36.22931 | -71.67999 | 38090 ft | 443 kts | 332° |
| 2026-05-03 22:04 | 36.28933 | -71.69566 | 38084 ft | 442 kts | 332° |
| 2026-05-03 22:05 | 36.34977 | -71.71149 | 38089 ft | 444 kts | 332° |
| 2026-05-03 22:05 | 36.41023 | -71.72735 | 38091 ft | 445 kts | 333° |
| 2026-05-03 22:06 | 36.47087 | -71.74327 | 38100 ft | 445 kts | 333° |
| 2026-05-03 22:06 | 36.53144 | -71.75917 | 38090 ft | 444 kts | 333° |
| 2026-05-03 22:07 | 36.59161 | -71.77503 | 38096 ft | 445 kts | 333° |
| 2026-05-03 22:07 | 36.65230 | -71.79105 | 38087 ft | 445 kts | 333° |
| 2026-05-03 22:08 | 36.71259 | -71.80698 | 38089 ft | 446 kts | 334° |
| 2026-05-03 22:08 | 36.77336 | -71.82306 | 38090 ft | 446 kts | 334° |
| 2026-05-03 22:09 | 36.82122 | -71.83582 | 38089 ft | 445 kts | 333° |
| 2026-05-03 22:10 | 36.91190 | -71.86015 | 38084 ft | 446 kts | 334° |
| 2026-05-03 22:10 | 36.97274 | -71.87632 | 38083 ft | 446 kts | 334° |
| 2026-05-03 22:11 | 37.03352 | -71.89248 | 38092 ft | 448 kts | 334° |
| 2026-05-03 22:11 | 37.06403 | -71.90061 | 38216 ft | 448 kts | 334° |
| 2026-05-03 22:11 | 37.09460 | -71.90875 | 38357 ft | 448 kts | 334° |
| 2026-05-03 22:11 | 37.12510 | -71.91688 | 38495 ft | 448 kts | 334° |
| 2026-05-03 22:12 | 37.15557 | -71.92501 | 38635 ft | 448 kts | 334° |
| 2026-05-03 22:12 | 37.18608 | -71.93316 | 38781 ft | 448 kts | 334° |
| 2026-05-03 22:12 | 37.21661 | -71.94132 | 38886 ft | 448 kts | 334° |
| 2026-05-03 22:13 | 37.26734 | -71.95490 | 39054 ft | 449 kts | 335° |
| 2026-05-03 22:13 | 37.33066 | -71.96452 | 39086 ft | 468 kts | 345° |
| 2026-05-03 22:14 | 37.39646 | -71.96397 | 39082 ft | 473 kts | 347° |
| 2026-05-03 22:14 | 37.46238 | -71.96332 | 39085 ft | 473 kts | 348° |
| 2026-05-03 22:15 | 37.52836 | -71.96260 | 39083 ft | 474 kts | 348° |
| 2026-05-03 22:15 | 37.93720 | -71.95785 | 38971 ft | 473 kts | 348° |
| 2026-05-03 22:15 | 38.19866 | -71.95472 | 39083 ft | 468 kts | 349° |
| 2026-05-03 22:16 | 38.45941 | -71.95182 | 39053 ft | 467 kts | 349° |
| 2026-05-03 22:16 | 38.71252 | -71.94893 | 39033 ft | 469 kts | 350° |
| 2026-05-03 22:17 | 38.77780 | -71.94801 | 38783 ft | 470 kts | 349° |
| 2026-05-03 22:17 | 38.81054 | -71.94757 | 38565 ft | 470 kts | 349° |
| 2026-05-03 22:17 | 38.84278 | -71.94713 | 38326 ft | 469 kts | 349° |
| 2026-05-03 22:17 | 38.87546 | -71.94669 | 38100 ft | 468 kts | 349° |
| 2026-05-03 22:18 | 38.90804 | -71.94626 | 38024 ft | 469 kts | 349° |
| 2026-05-03 22:18 | 38.97147 | -71.95480 | 37771 ft | 446 kts | 333° |
| 2026-05-03 22:18 | 39.00026 | -71.96810 | 37275 ft | 433 kts | 324° |
| 2026-05-03 22:19 | 39.02626 | -71.98653 | 36699 ft | 420 kts | 315° |
| 2026-05-03 22:19 | 39.04921 | -72.00897 | 36157 ft | 411 kts | 310° |
| 2026-05-03 22:19 | 39.07105 | -72.03205 | 35639 ft | 411 kts | 311° |
| 2026-05-03 22:19 | 39.09327 | -72.05535 | 35125 ft | 412 kts | 311° |
| 2026-05-03 22:20 | 39.11557 | -72.07870 | 34610 ft | 414 kts | 311° |
| 2026-05-03 22:20 | 39.13803 | -72.10222 | 34105 ft | 415 kts | 311° |
| 2026-05-03 22:20 | 39.16050 | -72.12578 | 33538 ft | 415 kts | 311° |
| 2026-05-03 22:20 | 39.18259 | -72.14896 | 32975 ft | 415 kts | 311° |
| 2026-05-03 22:21 | 39.20494 | -72.17245 | 32400 ft | 414 kts | 311° |
| 2026-05-03 22:21 | 39.22727 | -72.19595 | 31785 ft | 415 kts | 312° |
| 2026-05-03 22:21 | 39.24966 | -72.21954 | 31180 ft | 415 kts | 312° |
| 2026-05-03 22:21 | 39.27209 | -72.24319 | 30570 ft | 414 kts | 312° |
| 2026-05-03 22:22 | 39.29438 | -72.26669 | 29949 ft | 412 kts | 312° |
| 2026-05-03 22:22 | 39.31648 | -72.29001 | 29241 ft | 408 kts | 313° |
| 2026-05-03 22:22 | 39.33836 | -72.31311 | 28552 ft | 405 kts | 313° |
| 2026-05-03 22:22 | 39.36009 | -72.33609 | 27877 ft | 401 kts | 313° |
| 2026-05-03 22:23 | 39.38157 | -72.35883 | 27207 ft | 397 kts | 313° |
| 2026-05-03 22:23 | 39.40261 | -72.38112 | 26569 ft | 394 kts | 313° |
| 2026-05-03 22:23 | 39.42373 | -72.40352 | 25941 ft | 390 kts | 313° |
| 2026-05-03 22:23 | 39.44462 | -72.42570 | 25328 ft | 387 kts | 314° |
| 2026-05-03 22:24 | 39.46535 | -72.44772 | 24717 ft | 384 kts | 314° |
| 2026-05-03 22:24 | 39.48593 | -72.46960 | 24111 ft | 380 kts | 314° |
| 2026-05-03 22:24 | 39.50615 | -72.49108 | 23459 ft | 371 kts | 314° |
| 2026-05-03 22:24 | 39.52582 | -72.51197 | 22713 ft | 361 kts | 314° |
| 2026-05-03 22:25 | 39.54511 | -72.53251 | 21984 ft | 358 kts | 314° |
| 2026-05-03 22:25 | 39.56436 | -72.55307 | 21273 ft | 358 kts | 314° |
| 2026-05-03 22:25 | 39.58352 | -72.57355 | 20584 ft | 355 kts | 314° |
| 2026-05-03 22:25 | 39.60246 | -72.59377 | 19908 ft | 351 kts | 315° |
| 2026-05-03 22:26 | 39.62096 | -72.61354 | 19256 ft | 348 kts | 315° |
| 2026-05-03 22:26 | 39.63985 | -72.63374 | 18602 ft | 346 kts | 315° |
| 2026-05-03 22:26 | 39.65815 | -72.65332 | 17928 ft | 344 kts | 315° |
| 2026-05-03 22:26 | 39.67657 | -72.67304 | 17206 ft | 341 kts | 315° |
| 2026-05-03 22:27 | 39.69483 | -72.69260 | 16498 ft | 339 kts | 315° |
| 2026-05-03 22:27 | 39.71301 | -72.71210 | 15807 ft | 338 kts | 315° |
| 2026-05-03 22:27 | 39.73106 | -72.73146 | 15138 ft | 335 kts | 316° |
| 2026-05-03 22:27 | 39.74905 | -72.75078 | 14585 ft | 332 kts | 316° |
| 2026-05-03 22:28 | 39.76667 | -72.76968 | 14489 ft | 332 kts | 316° |
| 2026-05-03 22:28 | 39.78466 | -72.78907 | 14390 ft | 336 kts | 316° |
| 2026-05-03 22:28 | 39.80235 | -72.80860 | 14300 ft | 331 kts | 311° |
| 2026-05-03 22:28 | 39.81563 | -72.83254 | 14203 ft | 325 kts | 293° |
| 2026-05-03 22:29 | 39.82184 | -72.86011 | 14111 ft | 322 kts | 275° |
| 2026-05-03 22:29 | 39.82184 | -72.88923 | 14014 ft | 322 kts | 268° |
| 2026-05-03 22:29 | 39.82101 | -72.91834 | 13925 ft | 322 kts | 268° |
| 2026-05-03 22:29 | 39.82018 | -72.94749 | 13823 ft | 321 kts | 268° |
| 2026-05-03 22:30 | 39.81937 | -72.97652 | 13722 ft | 321 kts | 268° |
| 2026-05-03 22:30 | 39.81856 | -73.00561 | 13612 ft | 321 kts | 268° |
| 2026-05-03 22:30 | 39.81776 | -73.03461 | 13523 ft | 320 kts | 268° |
| 2026-05-03 22:30 | 39.81696 | -73.06329 | 13345 ft | 321 kts | 268° |
| 2026-05-03 22:31 | 39.81615 | -73.09230 | 13067 ft | 320 kts | 268° |
| 2026-05-03 22:31 | 39.81535 | -73.12117 | 12809 ft | 318 kts | 268° |
| 2026-05-03 22:31 | 39.81454 | -73.14992 | 12556 ft | 317 kts | 268° |
| 2026-05-03 22:31 | 39.81372 | -73.17860 | 12287 ft | 316 kts | 268° |
| 2026-05-03 22:32 | 39.81291 | -73.20716 | 12026 ft | 316 kts | 268° |
| 2026-05-03 22:32 | 39.81229 | -73.23569 | 11769 ft | 315 kts | 271° |
| 2026-05-03 22:32 | 39.81382 | -73.26367 | 11563 ft | 313 kts | 278° |
| 2026-05-03 22:32 | 39.81952 | -73.29103 | 11320 ft | 313 kts | 290° |
| 2026-05-03 22:33 | 39.82836 | -73.31692 | 11102 ft | 314 kts | 292° |
| 2026-05-03 22:33 | 39.83705 | -73.34242 | 10876 ft | 301 kts | 292° |
| 2026-05-03 22:33 | 39.84517 | -73.36692 | 10641 ft | 288 kts | 291° |
| 2026-05-03 22:33 | 39.85282 | -73.39045 | 10427 ft | 275 kts | 291° |
| 2026-05-03 22:34 | 39.86006 | -73.41298 | 10201 ft | 264 kts | 291° |
| 2026-05-03 22:34 | 39.86710 | -73.43504 | 9961 ft | 265 kts | 291° |
| 2026-05-03 22:34 | 39.87417 | -73.45726 | 9701 ft | 265 kts | 291° |
| 2026-05-03 22:34 | 39.88118 | -73.47930 | 9428 ft | 263 kts | 291° |
| 2026-05-03 22:35 | 39.88819 | -73.50132 | 9180 ft | 262 kts | 291° |
| 2026-05-03 22:35 | 39.89505 | -73.52288 | 9097 ft | 262 kts | 291° |
| 2026-05-03 22:35 | 39.90204 | -73.54488 | 9081 ft | 263 kts | 291° |
| 2026-05-03 22:35 | 39.90903 | -73.56688 | 9066 ft | 262 kts | 291° |
| 2026-05-03 22:36 | 39.91598 | -73.58876 | 8802 ft | 260 kts | 291° |
| 2026-05-03 22:36 | 39.92289 | -73.61054 | 8400 ft | 260 kts | 291° |
| 2026-05-03 22:36 | 39.93000 | -73.63166 | 8206 ft | 249 kts | 295° |
| 2026-05-03 22:36 | 39.93762 | -73.65152 | 7748 ft | 247 kts | 295° |
| 2026-05-03 22:37 | 39.94531 | -73.67157 | 7288 ft | 247 kts | 295° |
| 2026-05-03 22:37 | 39.95294 | -73.69157 | 6840 ft | 245 kts | 295° |
| 2026-05-03 22:37 | 39.96052 | -73.71145 | 6405 ft | 243 kts | 295° |
| 2026-05-03 22:37 | 39.96791 | -73.73089 | 6272 ft | 242 kts | 296° |
| 2026-05-03 22:38 | 39.97551 | -73.75087 | 6171 ft | 245 kts | 296° |
| 2026-05-03 22:38 | 39.98302 | -73.77064 | 6074 ft | 242 kts | 296° |
| 2026-05-03 22:38 | 39.99037 | -73.79000 | 6072 ft | 242 kts | 296° |
| 2026-05-03 22:38 | 39.99916 | -73.80864 | 6071 ft | 243 kts | 313° |
| 2026-05-03 22:39 | 40.01349 | -73.82008 | 5897 ft | 246 kts | 341° |
| 2026-05-03 22:39 | 40.03072 | -73.82060 | 5760 ft | 254 kts | 9° |
| 2026-05-03 22:39 | 40.04775 | -73.81374 | 5650 ft | 257 kts | 16° |
| 2026-05-03 22:39 | 40.06445 | -73.80553 | 5547 ft | 255 kts | 17° |
| 2026-05-03 22:40 | 40.08101 | -73.79735 | 5441 ft | 254 kts | 17° |
| 2026-05-03 22:40 | 40.09764 | -73.78951 | 5339 ft | 254 kts | 15° |
| 2026-05-03 22:40 | 40.11432 | -73.78205 | 5220 ft | 253 kts | 15° |
| 2026-05-03 22:40 | 40.13099 | -73.77478 | 5100 ft | 251 kts | 15° |
| 2026-05-03 22:41 | 40.14735 | -73.76773 | 4970 ft | 250 kts | 14° |
| 2026-05-03 22:41 | 40.16390 | -73.76060 | 4842 ft | 250 kts | 15° |
| 2026-05-03 22:41 | 40.18039 | -73.75349 | 4718 ft | 250 kts | 15° |
| 2026-05-03 22:41 | 40.19698 | -73.74633 | 4581 ft | 251 kts | 15° |
| 2026-05-03 22:42 | 40.21356 | -73.73916 | 4448 ft | 250 kts | 15° |
| 2026-05-03 22:42 | 40.23011 | -73.73199 | 4316 ft | 250 kts | 15° |
| 2026-05-03 22:42 | 40.24660 | -73.72484 | 4184 ft | 250 kts | 15° |
| 2026-05-03 22:42 | 40.26306 | -73.71770 | 4054 ft | 248 kts | 15° |
| 2026-05-03 22:43 | 40.27933 | -73.71061 | 3945 ft | 246 kts | 15° |
| 2026-05-03 22:43 | 40.29560 | -73.70356 | 3817 ft | 245 kts | 15° |
| 2026-05-03 22:43 | 40.31177 | -73.69652 | 3709 ft | 246 kts | 15° |
| 2026-05-03 22:43 | 40.32798 | -73.68949 | 3617 ft | 245 kts | 15° |
| 2026-05-03 22:44 | 40.34413 | -73.68247 | 3508 ft | 245 kts | 15° |
| 2026-05-03 22:44 | 40.36010 | -73.67551 | 3397 ft | 237 kts | 15° |
| 2026-05-03 22:44 | 40.37531 | -73.66887 | 3296 ft | 234 kts | 15° |
| 2026-05-03 22:44 | 40.39083 | -73.66214 | 3191 ft | 235 kts | 15° |
| 2026-05-03 22:45 | 40.40625 | -73.65544 | 3085 ft | 234 kts | 15° |
| 2026-05-03 22:45 | 40.42173 | -73.64870 | 2979 ft | 233 kts | 15° |
| 2026-05-03 22:45 | 40.43718 | -73.64195 | 2871 ft | 234 kts | 15° |
| 2026-05-03 22:45 | 40.45261 | -73.63520 | 2770 ft | 232 kts | 15° |
| 2026-05-03 22:46 | 40.46798 | -73.62848 | 2661 ft | 232 kts | 15° |
| 2026-05-03 22:46 | 40.48328 | -73.62178 | 2568 ft | 229 kts | 15° |
| 2026-05-03 22:46 | 40.49800 | -73.61532 | 2524 ft | 222 kts | 15° |
| 2026-05-03 22:46 | 40.51266 | -73.60893 | 2501 ft | 222 kts | 15° |
| 2026-05-03 22:47 | 40.52723 | -73.60260 | 2506 ft | 216 kts | 15° |
| 2026-05-03 22:47 | 40.54118 | -73.59647 | 2519 ft | 210 kts | 15° |
| 2026-05-03 22:47 | 40.55546 | -73.59420 | 2457 ft | 205 kts | 347° |
| 2026-05-03 22:47 | 40.56804 | -73.60160 | 2265 ft | 199 kts | 320° |
| 2026-05-03 22:48 | 40.57740 | -73.61450 | 2170 ft | 188 kts | 307° |
| 2026-05-03 22:48 | 40.58447 | -73.62817 | 2069 ft | 178 kts | 303° |
| 2026-05-03 22:48 | 40.59080 | -73.64194 | 1964 ft | 172 kts | 302° |
| 2026-05-03 22:48 | 40.59666 | -73.65492 | 1887 ft | 160 kts | 302° |
| 2026-05-03 22:49 | 40.60221 | -73.66723 | 1718 ft | 152 kts | 302° |
| 2026-05-03 22:49 | 40.60728 | -73.67848 | 1503 ft | 135 kts | 302° |
| 2026-05-03 22:49 | 40.61193 | -73.68879 | 1333 ft | 132 kts | 302° |
| 2026-05-03 22:49 | 40.61654 | -73.69900 | 1146 ft | 130 kts | 302° |
| 2026-05-03 22:50 | 40.62120 | -73.70931 | 971 ft | 130 kts | 301° |
| 2026-05-03 22:50 | 40.62572 | -73.71937 | 794 ft | 126 kts | 303° |
| 2026-05-03 22:50 | 40.63019 | -73.72926 | 632 ft | 128 kts | 303° |
| 2026-05-03 22:50 | 40.63476 | -73.73943 | 428 ft | 126 kts | 303° |
| 2026-05-03 22:51 | 40.63907 | -73.74913 | 255 ft | 123 kts | 303° |
| 2026-05-03 22:51 | 40.64338 | -73.75870 | 106 ft | 123 kts | 306° |
| 2026-05-03 22:51 | 40.64757 | -73.76780 | 23 ft | 109 kts | 305° |
| 2026-05-03 22:51 | 40.65053 | -73.77426 | 21 ft | 53 kts | 302° |
| 2026-05-03 22:52 | 40.65165 | -73.77673 | 19 ft | 33 kts | 298° |
| 2026-05-03 22:52 | 40.65213 | -73.77915 | 19 ft | 16 kts | 244° |
| 2026-05-03 22:52 | 40.65171 | -73.77953 | 20 ft | 8 kts | 208° |
| 2026-05-03 22:52 | 40.65112 | -73.77995 | 20 ft | 10 kts | 187° |
| 2026-05-03 22:53 | 40.65062 | -73.77928 | 20 ft | 12 kts | 120° |
| 2026-05-03 22:53 | 40.65013 | -73.77820 | 20 ft | 15 kts | 122° |
| 2026-05-03 22:53 | 40.64951 | -73.77685 | 20 ft | 19 kts | 120° |
| 2026-05-03 22:53 | 40.64878 | -73.77524 | 20 ft | 22 kts | 121° |
| 2026-05-03 22:54 | 40.64794 | -73.77338 | 20 ft | 25 kts | 120° |
| 2026-05-03 22:54 | 40.64711 | -73.77159 | 20 ft | 23 kts | 127° |
| 2026-05-03 22:54 | 40.64566 | -73.77089 | 20 ft | 19 kts | 181° |
| 2026-05-03 22:54 | 40.64451 | -73.77109 | 20 ft | 8 kts | 235° |
| 2026-05-03 22:55 | 40.64446 | -73.77194 | 22 ft | 11 kts | 274° |
| 2026-05-03 22:55 | 40.64454 | -73.77299 | 20 ft | 12 kts | 276° |
| 2026-05-03 22:55 | 40.64452 | -73.77405 | 20 ft | 10 kts | 276° |
| 2026-05-03 22:55 | 40.64491 | -73.77462 | 20 ft | 7 kts | 328° |
| 2026-05-03 22:56 | 40.64522 | -73.77487 | 20 ft | 0 kts | 329° |